Time;durP1;ratioP1;P1;durP2;ratioP2;P2;SDS_P1;SDS_P2;PMS_P1;PMS_P2;Temp;Humidity;BMP_temperature;BMP_pressure;BME280_temperature;BME280_humidity;BME280_pressure;Samples;Min_cycle;Max_cycle;Signal;HPM_P1;HPM_P2
2023/11/09 00:01:52;;;;;;;26.13;12.53;;;4.20;99.90;;;;;;4408101;28;656989;-77
2023/11/09 00:04:40;;;;;;;29.00;14.27;;;4.10;99.90;;;;;;4430828;28;657360;-80
2023/11/09 00:07:29;;;;;;;26.93;15.10;;;4.10;99.90;;;;;;4426189;28;656609;-77
2023/11/09 00:10:17;;;;;;;29.50;15.33;;;4.10;99.90;;;;;;4425706;28;656566;-78
2023/11/09 00:13:04;;;;;;;30.20;15.47;;;4.00;99.90;;;;;;4405093;28;657965;-80
2023/11/09 00:15:55;;;;;;;36.23;16.20;;;4.10;99.90;;;;;;4429495;28;656448;-79
2023/11/09 00:18:43;;;;;;;31.17;15.93;;;4.00;99.90;;;;;;4378615;28;656472;-77
2023/11/09 00:21:30;;;;;;;41.50;16.93;;;4.00;99.90;;;;;;4425870;28;656775;-79
2023/11/09 00:24:17;;;;;;;31.10;16.23;;;4.00;99.90;;;;;;4416169;28;656794;-76
2023/11/09 00:27:05;;;;;;;31.00;17.30;;;4.10;99.90;;;;;;4424511;28;657686;-79
2023/11/09 00:29:52;;;;;;;30.05;16.05;;;4.00;99.90;;;;;;4406039;28;657595;-76
2023/11/09 00:32:41;;;;;;;30.33;16.97;;;4.10;99.90;;;;;;4424788;28;656986;-79
2023/11/09 00:35:29;;;;;;;32.53;16.67;;;4.10;99.90;;;;;;4412068;28;656973;-78
2023/11/09 00:38:17;;;;;;;32.27;16.00;;;4.00;99.90;;;;;;4426451;28;656404;-78
2023/11/09 00:41:06;;;;;;;31.43;15.37;;;4.00;99.90;;;;;;4407911;28;656694;-79
2023/11/09 00:43:53;;;;;;;35.10;16.60;;;4.00;99.90;;;;;;4411923;28;657063;-79
2023/11/09 00:46:40;;;;;;;32.07;16.87;;;4.00;99.90;;;;;;4432895;28;657849;-79
2023/11/09 00:49:29;;;;;;;30.87;16.77;;;3.90;99.90;;;;;;4410011;28;656393;-77
2023/11/09 00:52:16;;;;;;;34.17;16.87;;;3.90;99.90;;;;;;4434332;28;657267;-77
2023/11/09 00:55:03;;;;;;;31.07;16.57;;;3.80;99.90;;;;;;4406958;28;656856;-79
2023/11/09 00:57:51;;;;;;;30.47;16.20;;;3.70;99.90;;;;;;4426213;28;656566;-79
2023/11/09 01:00:38;;;;;;;29.23;15.40;;;3.70;99.90;;;;;;4403580;28;656438;-79
2023/11/09 01:03:27;;;;;;;31.73;15.30;;;3.70;99.90;;;;;;4432636;28;657050;-79
2023/11/09 01:06:15;;;;;;;31.73;14.63;;;3.60;99.90;;;;;;4409483;28;656359;-79
2023/11/09 01:09:02;;;;;;;34.27;15.33;;;3.60;99.90;;;;;;4407618;28;656392;-76
2023/11/09 01:11:50;;;;;;;32.80;15.03;;;3.60;99.90;;;;;;4427677;28;657834;-79
2023/11/09 01:14:37;;;;;;;31.30;14.80;;;3.60;99.90;;;;;;4426144;28;657272;-77
2023/11/09 01:17:27;;;;;;;26.80;15.23;;;3.50;99.90;;;;;;4430158;28;656625;-78
2023/11/09 01:20:14;;;;;;;30.30;15.43;;;3.40;99.90;;;;;;4405895;28;658268;-79
2023/11/09 01:23:04;;;;;;;30.43;14.70;;;3.40;99.90;;;;;;4422537;28;656657;-79
2023/11/09 01:25:51;;;;;;;28.07;14.83;;;3.30;99.90;;;;;;4403343;28;656456;-79
2023/11/09 01:28:38;;;;;;;30.07;14.90;;;3.30;99.90;;;;;;4410209;28;658421;-79
2023/11/09 01:31:25;;;;;;;25.63;15.45;;;3.30;99.90;;;;;;4428633;28;656594;-79
2023/11/09 01:34:13;;;;;;;28.17;15.30;;;3.20;99.90;;;;;;4409127;28;656293;-76
2023/11/09 01:37:00;;;;;;;32.20;15.10;;;3.10;99.90;;;;;;4425054;28;657883;-79
2023/11/09 01:39:49;;;;;;;28.13;13.77;;;3.00;99.90;;;;;;4412189;28;657151;-77
2023/11/09 01:42:36;;;;;;;27.23;14.30;;;2.90;99.90;;;;;;4425822;28;656664;-79
2023/11/09 01:45:23;;;;;;;25.27;14.33;;;2.90;99.90;;;;;;4407033;28;657196;-79
2023/11/09 01:48:11;;;;;;;25.80;14.10;;;2.80;99.90;;;;;;4426943;28;657263;-79
2023/11/09 01:50:58;;;;;;;25.55;14.20;;;2.70;99.90;;;;;;4402766;28;656731;-79
2023/11/09 01:53:46;;;;;;;23.97;13.10;;;2.60;99.90;;;;;;4424532;28;657308;-79
2023/11/09 01:56:49;;;;;;;41.97;14.37;;;2.50;99.90;;;;;;4408836;28;656517;-79
2023/11/09 01:59:37;;;;;;;27.58;13.95;;;2.50;99.90;;;;;;4342384;28;657044;-79
2023/11/09 02:02:41;;;;;;;24.63;13.77;;;2.40;99.90;;;;;;4353465;28;658074;-78
2023/11/09 02:05:29;;;;;;;27.93;13.43;;;2.40;99.90;;;;;;4383700;28;657331;-79
2023/11/09 02:08:17;;;;;;;29.23;13.37;;;2.30;99.90;;;;;;4420278;28;657743;-79
2023/11/09 02:11:05;;;;;;;23.10;12.23;;;2.30;99.90;;;;;;4403869;28;659560;-78
2023/11/09 02:13:54;;;;;;;24.63;11.65;;;2.20;99.90;;;;;;4404702;28;659691;-77
2023/11/09 02:16:41;;;;;;;26.67;11.90;;;2.20;99.90;;;;;;4425153;28;658000;-79
2023/11/09 02:19:29;;;;;;;20.13;11.73;;;2.30;99.90;;;;;;4401338;28;657952;-79
2023/11/09 02:22:17;;;;;;;29.47;11.60;;;2.20;99.90;;;;;;4426136;28;657213;-79
2023/11/09 02:25:07;;;;;;;26.70;11.90;;;2.10;99.90;;;;;;4403715;28;658354;-79
2023/11/09 02:27:55;;;;;;;26.33;11.73;;;2.10;99.90;;;;;;4405244;28;658856;-79
2023/11/09 02:30:42;;;;;;;28.70;11.83;;;2.10;99.90;;;;;;4424632;28;658927;-79
2023/11/09 02:33:29;;;;;;;20.60;10.67;;;2.00;99.90;;;;;;4398113;28;658984;-79
2023/11/09 02:36:17;;;;;;;26.73;11.73;;;2.00;99.90;;;;;;4420621;28;657612;-79
2023/11/09 02:39:05;;;;;;;24.80;10.90;;;1.90;99.90;;;;;;4405434;28;658030;-79
2023/11/09 02:41:53;;;;;;;24.23;11.50;;;1.90;99.90;;;;;;4424472;28;657963;-79
2023/11/09 02:44:40;;;;;;;22.10;10.47;;;1.90;99.90;;;;;;4407572;28;658969;-79
2023/11/09 02:47:28;;;;;;;23.67;11.13;;;1.90;99.90;;;;;;4405049;28;657375;-79
2023/11/09 02:50:15;;;;;;;24.13;11.77;;;1.80;99.90;;;;;;4422053;28;657962;-79
2023/11/09 02:53:02;;;;;;;35.13;12.67;;;1.70;99.90;;;;;;4404439;28;657712;-77
2023/11/09 02:55:50;;;;;;;24.00;11.33;;;1.60;99.90;;;;;;4418302;28;659000;-79
2023/11/09 02:58:39;;;;;;;25.33;12.10;;;1.60;99.90;;;;;;4418554;28;658409;-79
2023/11/09 03:01:26;;;;;;;26.87;12.23;;;1.60;99.90;;;;;;4399256;28;658102;-79
2023/11/09 03:04:13;;;;;;;24.27;11.57;;;1.60;99.90;;;;;;4403500;28;657351;-79
2023/11/09 03:07:01;;;;;;;25.53;12.10;;;1.60;99.90;;;;;;4427480;28;658484;-79
2023/11/09 03:09:48;;;;;;;24.27;11.13;;;1.60;99.90;;;;;;4404996;28;657620;-78
2023/11/09 03:12:36;;;;;;;27.20;11.63;;;1.60;99.90;;;;;;4409504;28;658007;-76
2023/11/09 03:15:25;;;;;;;27.77;11.27;;;1.60;99.90;;;;;;4403742;28;657797;-78
2023/11/09 03:18:13;;;;;;;27.50;11.07;;;1.50;99.90;;;;;;4405154;28;657314;-77
2023/11/09 03:21:00;;;;;;;21.10;10.60;;;1.40;99.90;;;;;;4421711;28;658180;-79
2023/11/09 03:23:49;;;;;;;25.83;10.23;;;1.40;99.90;;;;;;4409885;28;657617;-77
2023/11/09 03:26:37;;;;;;;21.27;10.47;;;1.40;99.90;;;;;;4418008;28;657488;-78
2023/11/09 03:29:24;;;;;;;29.07;11.77;;;1.40;99.90;;;;;;4396921;28;658212;-78
2023/11/09 03:32:12;;;;;;;22.23;9.87;;;1.30;99.90;;;;;;4428752;28;657958;-78
2023/11/09 03:35:01;;;;;;;22.13;9.27;;;1.30;99.90;;;;;;4399808;28;657867;-78
2023/11/09 03:37:48;;;;;;;19.00;8.70;;;1.30;99.90;;;;;;4400617;28;656679;-78
2023/11/09 03:40:35;;;;;;;18.07;8.17;;;1.30;99.90;;;;;;4423979;28;657500;-79
2023/11/09 03:43:22;;;;;;;25.20;9.93;;;1.20;99.90;;;;;;4412761;28;656321;-75
2023/11/09 03:46:13;;;;;;;20.30;7.87;;;1.20;99.90;;;;;;4427209;28;657316;-78
2023/11/09 03:49:02;;;;;;;18.23;8.33;;;1.20;99.90;;;;;;4404748;28;657746;-78
2023/11/09 03:51:50;;;;;;;19.87;8.03;;;1.20;99.90;;;;;;4401030;28;657002;-78
2023/11/09 03:54:37;;;;;;;17.77;7.63;;;1.20;99.90;;;;;;4426913;28;656682;-78
2023/11/09 03:57:24;;;;;;;16.47;7.33;;;1.20;99.90;;;;;;4405139;28;657402;-78
2023/11/09 04:00:12;;;;;;;16.67;8.00;;;1.20;99.90;;;;;;4426433;28;656506;-78
2023/11/09 04:03:00;;;;;;;24.37;8.30;;;1.10;99.90;;;;;;4404391;28;657144;-77
2023/11/09 04:05:49;;;;;;;22.03;9.50;;;1.20;99.90;;;;;;4425562;28;656751;-75
2023/11/09 04:08:36;;;;;;;22.17;8.03;;;1.10;99.90;;;;;;4430955;28;656665;-77
2023/11/09 04:11:24;;;;;;;17.90;8.27;;;1.20;99.90;;;;;;4407934;28;656360;-78
2023/11/09 04:14:11;;;;;;;21.53;8.13;;;1.20;99.90;;;;;;4428289;28;656734;-78
2023/11/09 04:16:58;;;;;;;19.77;8.40;;;1.10;99.90;;;;;;4400977;28;657089;-78
2023/11/09 04:19:46;;;;;;;22.23;8.00;;;1.10;99.90;;;;;;4431120;28;657471;-78
2023/11/09 04:22:35;;;;;;;16.60;7.27;;;1.00;99.90;;;;;;4409574;28;656629;-78
2023/11/09 04:25:24;;;;;;;16.77;7.10;;;1.00;99.90;;;;;;4426325;28;656753;-76
2023/11/09 04:28:11;;;;;;;13.10;6.40;;;1.00;99.90;;;;;;4432949;28;656512;-79
2023/11/09 04:31:00;;;;;;;20.10;7.50;;;1.00;99.90;;;;;;4407170;28;657276;-78
2023/11/09 04:33:47;;;;;;;17.90;7.07;;;0.90;99.90;;;;;;4423255;28;656097;-75
2023/11/09 04:36:40;;;;;;;15.63;6.83;;;0.90;99.90;;;;;;4433369;28;657355;-77
2023/11/09 04:39:31;;;;;;;15.20;6.53;;;0.90;99.90;;;;;;4392392;28;657011;-77
2023/11/09 04:42:19;;;;;;;16.63;8.63;;;0.90;99.90;;;;;;4410850;28;656163;-78
2023/11/09 04:45:11;;;;;;;23.83;8.67;;;0.90;99.90;;;;;;4426644;28;656238;-77
2023/11/09 04:48:07;;;;;;;18.23;8.43;;;0.90;99.90;;;;;;4384613;28;657057;-78
2023/11/09 04:51:00;;;;;;;16.53;7.97;;;0.90;99.90;;;;;;4411461;28;656413;-78
2023/11/09 04:53:51;;;;;;;12.70;6.07;;;0.80;99.90;;;;;;4429657;28;656340;-78
2023/11/09 04:56:52;;;;;;;20.13;6.30;;;0.80;99.90;;;;;;4383264;28;656220;-77
2023/11/09 05:08:54;;;;;;;17.07;7.40;;;0.80;99.90;;;;;;4411254;28;657173;-76
2023/11/09 05:11:43;;;;;;;18.00;7.23;;;0.70;99.90;;;;;;4425015;28;657996;-76
2023/11/09 05:14:31;;;;;;;24.40;12.43;;;0.70;99.90;;;;;;4404116;28;657474;-78
2023/11/09 05:17:19;;;;;;;22.17;11.00;;;0.70;99.90;;;;;;4406216;28;657424;-77
2023/11/09 05:20:11;;;;;;;20.97;8.90;;;0.70;99.90;;;;;;4430627;28;657174;-78
2023/11/09 05:22:58;;;;;;;15.37;8.00;;;0.70;99.90;;;;;;4381736;28;657093;-76
2023/11/09 05:25:45;;;;;;;21.43;8.20;;;0.70;99.90;;;;;;4429616;28;656802;-78
2023/11/09 05:28:34;;;;;;;13.30;7.17;;;0.60;99.90;;;;;;4417113;28;656461;-75
2023/11/09 05:31:23;;;;;;;17.27;7.87;;;0.60;99.90;;;;;;4425673;28;656635;-77
2023/11/09 05:34:10;;;;;;;15.17;6.97;;;0.70;99.90;;;;;;4402259;28;657158;-77
2023/11/09 05:36:58;;;;;;;11.83;6.87;;;0.80;99.90;;;;;;4397376;28;657052;-76
2023/11/09 05:39:46;;;;;;;20.20;6.20;;;0.80;99.90;;;;;;4429658;28;657845;-78
2023/11/09 05:42:33;;;;;;;17.17;6.40;;;0.80;99.90;;;;;;4404829;28;656632;-77
2023/11/09 05:45:22;;;;;;;14.50;6.13;;;0.90;99.90;;;;;;4424551;28;658178;-76
2023/11/09 05:48:09;;;;;;;16.03;6.40;;;0.90;99.90;;;;;;4403097;28;658203;-77
2023/11/09 05:50:57;;;;;;;18.48;6.43;;;1.00;99.90;;;;;;4424012;28;658350;-77
2023/11/09 05:53:44;;;;;;;16.83;6.47;;;1.00;99.90;;;;;;4409297;28;658403;-77
2023/11/09 05:56:31;;;;;;;10.63;5.83;;;0.90;99.90;;;;;;4422887;28;657415;-77
2023/11/09 05:59:21;;;;;;;14.80;6.60;;;0.90;99.90;;;;;;4400755;28;656890;-76
2023/11/09 06:02:11;;;;;;;14.40;5.90;;;1.00;99.90;;;;;;4401360;28;657078;-77
2023/11/09 06:04:58;;;;;;;28.33;7.13;;;1.00;99.90;;;;;;4405614;28;656659;-78
2023/11/09 06:07:46;;;;;;;15.15;6.25;;;1.10;99.90;;;;;;4422215;28;656443;-77
2023/11/09 06:10:33;;;;;;;12.87;5.97;;;1.10;99.90;;;;;;4391242;28;656621;-77
2023/11/09 06:13:20;;;;;;;14.57;6.70;;;1.20;99.90;;;;;;4424704;28;656705;-77
2023/11/09 06:16:08;;;;;;;13.57;6.03;;;1.20;99.90;;;;;;4406217;28;657260;-76
2023/11/09 06:18:57;;;;;;;13.07;6.50;;;1.20;99.90;;;;;;4428596;28;657361;-77
2023/11/09 06:21:45;;;;;;;17.30;6.33;;;1.20;99.90;;;;;;4401484;28;657124;-76
2023/11/09 06:24:32;;;;;;;13.67;6.67;;;1.30;99.90;;;;;;4417265;28;656747;-76
2023/11/09 06:27:20;;;;;;;19.80;8.47;;;1.40;99.90;;;;;;4428053;28;657351;-78
2023/11/09 06:30:09;;;;;;;17.23;8.30;;;1.60;99.90;;;;;;4413892;28;656675;-77
2023/11/09 06:32:56;;;;;;;26.00;11.17;;;1.70;99.90;;;;;;4422202;28;656559;-77
2023/11/09 06:35:46;;;;;;;20.23;9.27;;;1.70;99.90;;;;;;4408316;28;659134;-78
2023/11/09 06:38:33;;;;;;;22.23;10.50;;;1.90;99.90;;;;;;4403234;28;656839;-77
2023/11/09 06:41:21;;;;;;;23.57;11.00;;;2.10;99.90;;;;;;4427491;28;658397;-78
2023/11/09 06:44:09;;;;;;;26.53;14.17;;;2.20;99.90;;;;;;4403447;28;658324;-77
2023/11/09 06:46:58;;;;;;;32.43;16.23;;;2.20;99.90;;;;;;4420297;28;657985;-78
2023/11/09 06:49:45;;;;;;;32.27;17.70;;;2.30;99.90;;;;;;4405457;28;658045;-78
2023/11/09 06:52:34;;;;;;;36.57;18.77;;;2.40;99.90;;;;;;4408751;28;657829;-77
2023/11/09 06:55:21;;;;;;;34.67;19.67;;;2.50;99.90;;;;;;4420703;28;657652;-77
2023/11/09 06:58:09;;;;;;;33.27;18.03;;;2.60;99.90;;;;;;4407331;28;658101;-78
2023/11/09 07:00:56;;;;;;;35.17;19.33;;;2.70;99.90;;;;;;4417990;28;658014;-78
2023/11/09 07:03:44;;;;;;;40.97;23.00;;;2.80;99.90;;;;;;4399861;28;658025;-76
2023/11/09 07:06:31;;;;;;;30.27;16.10;;;2.90;99.90;;;;;;4419418;28;658220;-78
2023/11/09 07:09:20;;;;;;;37.77;18.93;;;3.00;99.90;;;;;;4399154;28;657825;-78
2023/11/09 07:12:08;;;;;;;30.47;16.53;;;3.10;99.90;;;;;;4420254;28;658085;-75
2023/11/09 07:14:56;;;;;;;27.73;12.83;;;3.20;99.90;;;;;;4429092;28;658563;-78
2023/11/09 07:17:43;;;;;;;31.90;15.43;;;3.40;99.90;;;;;;4409365;28;657794;-77
2023/11/09 07:20:31;;;;;;;29.90;13.80;;;3.50;99.90;;;;;;4417007;28;657732;-78
2023/11/09 07:23:23;;;;;;;23.13;13.67;;;3.60;99.90;;;;;;4404093;28;657790;-77
2023/11/09 07:26:13;;;;;;;25.20;10.83;;;3.80;99.90;;;;;;4399993;28;658219;-78
2023/11/09 07:29:00;;;;;;;17.33;10.13;;;3.80;99.90;;;;;;4389215;28;657772;-78
2023/11/09 07:31:47;;;;;;;20.48;9.95;;;4.00;99.90;;;;;;4401020;28;660425;-77
2023/11/09 07:34:35;;;;;;;17.87;8.87;;;4.20;99.90;;;;;;4422026;28;657416;-77
2023/11/09 07:37:23;;;;;;;20.67;10.33;;;4.30;99.90;;;;;;4406403;28;656497;-77
2023/11/09 07:40:12;;;;;;;16.87;7.97;;;4.50;99.90;;;;;;4425263;28;658355;-78
2023/11/09 07:43:00;;;;;;;17.33;9.23;;;4.60;99.90;;;;;;4404180;28;657588;-77
2023/11/09 07:45:48;;;;;;;22.37;10.07;;;4.90;99.90;;;;;;4408762;28;656578;-76
2023/11/09 07:48:35;;;;;;;23.63;8.57;;;5.00;99.90;;;;;;4425291;28;659080;-77
2023/11/09 07:51:23;;;;;;;16.17;7.90;;;5.20;99.90;;;;;;4416409;28;656665;-76
2023/11/09 07:54:11;;;;;;;14.48;7.95;;;5.40;99.90;;;;;;4427385;28;657239;-78
2023/11/09 07:57:01;;;;;;;17.37;8.37;;;5.60;99.90;;;;;;4406033;28;656830;-77
2023/11/09 07:59:50;;;;;;;24.33;10.40;;;5.80;99.90;;;;;;4413497;28;656427;-78
2023/11/09 08:02:38;;;;;;;22.13;11.17;;;6.20;99.90;;;;;;4430026;28;657673;-76
2023/11/09 08:05:25;;;;;;;15.10;7.67;;;6.60;99.90;;;;;;4427603;28;658935;-78
2023/11/09 08:08:14;;;;;;;22.90;7.13;;;7.00;99.90;;;;;;4410277;28;656587;-76
2023/11/09 08:11:01;;;;;;;16.47;6.40;;;7.70;99.90;;;;;;4414178;28;656653;-78
2023/11/09 08:13:48;;;;;;;16.60;5.47;;;8.20;99.90;;;;;;4395924;28;656516;-78
2023/11/09 08:16:37;;;;;;;10.47;4.40;;;8.60;99.90;;;;;;4412516;28;657661;-77
2023/11/09 08:19:24;;;;;;;10.77;4.80;;;9.00;99.90;;;;;;4388075;28;657930;-78
2023/11/09 08:22:11;;;;;;;10.93;4.37;;;9.30;99.90;;;;;;4416823;28;656740;-78
2023/11/09 08:25:00;;;;;;;9.87;4.33;;;9.70;99.90;;;;;;4385562;28;656602;-78
2023/11/09 08:27:47;;;;;;;10.17;3.50;;;10.10;99.90;;;;;;4404353;28;656129;-79
2023/11/09 08:30:34;;;;;;;10.60;3.60;;;10.40;99.90;;;;;;4384564;28;659095;-79
2023/11/09 08:33:23;;;;;;;6.27;2.80;;;10.40;99.90;;;;;;4408282;28;657845;-78
2023/11/09 08:36:10;;;;;;;5.90;3.30;;;10.60;99.90;;;;;;4389066;28;657853;-79
2023/11/09 08:38:57;;;;;;;8.20;3.60;;;10.80;99.90;;;;;;4393524;28;657074;-77
2023/11/09 08:41:45;;;;;;;15.07;3.50;;;11.10;99.90;;;;;;4415717;28;656685;-79
2023/11/09 08:44:34;;;;;;;6.33;2.70;;;11.20;99.90;;;;;;4400651;28;657931;-78
2023/11/09 08:47:21;;;;;;;7.77;3.30;;;11.60;99.90;;;;;;4414991;28;656806;-77
2023/11/09 08:50:11;;;;;;;11.73;3.53;;;11.60;99.90;;;;;;4388079;28;657166;-79
2023/11/09 08:52:59;;;;;;;5.80;2.70;;;11.70;99.90;;;;;;4388698;28;657738;-79
2023/11/09 08:55:46;;;;;;;8.47;2.30;;;11.80;99.90;;;;;;4416846;28;657163;-79
2023/11/09 08:58:36;;;;;;;8.63;2.43;;;12.20;99.90;;;;;;4387169;28;656295;-80
2023/11/09 09:01:25;;;;;;;7.90;2.17;;;12.40;99.90;;;;;;4387561;28;656495;-79
2023/11/09 09:04:14;;;;;;;7.83;3.03;;;12.90;99.90;;;;;;4391897;28;657005;-78
2023/11/09 09:07:02;;;;;;;9.80;2.67;;;13.00;99.90;;;;;;4409513;28;656546;-80
2023/11/09 09:09:50;;;;;;;5.77;2.73;;;13.00;99.90;;;;;;4401344;28;656796;-79
2023/11/09 09:12:37;;;;;;;8.43;2.97;;;12.70;99.90;;;;;;4407870;28;656816;-78
2023/11/09 09:15:28;;;;;;;6.10;2.60;;;12.90;99.90;;;;;;4427817;28;657351;-80
2023/11/09 09:18:16;;;;;;;5.30;2.47;;;13.10;99.90;;;;;;4405892;28;657085;-80
2023/11/09 09:21:06;;;;;;;5.77;2.43;;;13.60;99.90;;;;;;4408638;28;656739;-79
2023/11/09 09:23:56;;;;;;;7.60;2.47;;;13.60;90.10;;;;;;4401411;28;657151;-80
2023/11/09 09:26:43;;;;;;;6.90;2.33;;;13.30;99.90;;;;;;4407093;28;656545;-79
2023/11/09 09:29:30;;;;;;;5.03;2.13;;;13.30;97.10;;;;;;4424081;28;657222;-80
2023/11/09 09:32:18;;;;;;;10.90;2.40;;;13.60;86.90;;;;;;4400121;28;656883;-79
2023/11/09 09:35:07;;;;;;;5.57;2.53;;;13.50;92.70;;;;;;4419859;28;657697;-80
2023/11/09 09:37:54;;;;;;;4.60;2.10;;;14.20;93.20;;;;;;4404624;28;657834;-79
2023/11/09 09:40:43;;;;;;;5.30;2.20;;;14.20;93.00;;;;;;4426507;28;658383;-80
2023/11/09 09:43:30;;;;;;;6.43;2.50;;;14.70;87.90;;;;;;4402946;28;657224;-80
2023/11/09 09:46:18;;;;;;;5.07;2.57;;;15.30;66.90;;;;;;4398144;28;656519;-77
2023/11/09 09:49:06;;;;;;;4.03;1.95;;;15.50;69.70;;;;;;4425235;28;656441;-80
2023/11/09 09:51:55;;;;;;;4.73;2.20;;;15.30;87.00;;;;;;4403030;28;656643;-79
2023/11/09 09:54:42;;;;;;;5.83;2.30;;;14.90;66.50;;;;;;4431303;28;657810;-78
2023/11/09 09:57:31;;;;;;;2.80;1.60;;;15.20;66.90;;;;;;4400489;28;657980;-79
2023/11/09 10:00:24;;;;;;;6.47;2.40;;;15.90;61.70;;;;;;4404199;28;657538;-79
2023/11/09 10:03:11;;;;;;;5.67;2.33;;;15.90;60.50;;;;;;4399572;28;657014;-80
2023/11/09 10:05:59;;;;;;;6.33;2.00;;;15.30;59.80;;;;;;4402956;28;657037;-78
2023/11/09 10:08:46;;;;;;;5.03;1.97;;;15.30;68.90;;;;;;4426072;28;657537;-80
2023/11/09 10:11:34;;;;;;;3.03;1.70;;;15.50;63.90;;;;;;4404447;28;656678;-79
2023/11/09 10:14:24;;;;;;;3.67;1.70;;;16.20;60.00;;;;;;4422461;28;657878;-79
2023/11/09 10:17:11;;;;;;;5.83;2.40;;;16.20;60.80;;;;;;4399415;28;656321;-77
2023/11/09 10:19:59;;;;;;;4.23;2.17;;;16.00;62.40;;;;;;4401254;28;656655;-78
2023/11/09 10:22:46;;;;;;;6.43;2.10;;;15.50;60.80;;;;;;4420738;28;656875;-78
2023/11/09 10:25:36;;;;;;;6.40;2.03;;;15.60;60.00;;;;;;4404003;28;656716;-78
2023/11/09 10:28:24;;;;;;;5.70;2.20;;;15.50;60.70;;;;;;4400507;28;657244;-77
2023/11/09 10:31:30;;;;;;;6.10;2.13;;;15.10;59.70;;;;;;4418508;28;657177;-80
2023/11/09 10:34:17;;;;;;;5.67;2.27;;;15.20;65.60;;;;;;4397658;28;656963;-77
2023/11/09 10:37:05;;;;;;;9.03;2.60;;;15.20;61.90;;;;;;4421698;28;657285;-78
2023/11/09 10:39:53;;;;;;;7.33;2.67;;;14.60;86.10;;;;;;4417445;28;656567;-76
2023/11/09 10:42:41;;;;;;;10.40;2.67;;;14.30;93.40;;;;;;4423868;28;656598;-79
2023/11/09 10:45:30;;;;;;;7.30;2.80;;;14.40;87.50;;;;;;4395924;28;657973;-79
2023/11/09 10:48:22;;;;;;;9.07;2.70;;;14.60;99.40;;;;;;4408222;28;657366;-76
2023/11/09 10:51:10;;;;;;;8.67;2.67;;;14.40;89.10;;;;;;4404737;28;657353;-79
2023/11/09 10:53:59;;;;;;;6.23;2.73;;;14.80;99.90;;;;;;4410132;28;657254;-77
2023/11/09 10:56:47;;;;;;;10.70;2.80;;;14.80;70.60;;;;;;4424044;28;657385;-78
2023/11/09 10:59:40;;;;;;;7.87;2.77;;;14.50;94.20;;;;;;4400227;28;658200;-79
2023/11/09 11:02:28;;;;;;;7.83;2.70;;;14.80;74.80;;;;;;4400568;28;657211;-76
2023/11/09 11:05:18;;;;;;;5.30;2.90;;;15.10;76.80;;;;;;4422640;28;657124;-79
2023/11/09 11:08:06;;;;;;;8.33;2.93;;;15.50;84.10;;;;;;4396763;28;657047;-79
2023/11/09 11:10:54;;;;;;;7.83;2.90;;;16.00;59.90;;;;;;4404157;28;656699;-79
2023/11/09 11:13:43;;;;;;;7.57;2.67;;;15.70;58.80;;;;;;4416164;28;656061;-79
2023/11/09 11:16:58;;;;;;;4.10;2.03;;;15.50;66.80;;;;;;4396826;28;656764;-78
2023/11/09 11:20:17;;;;;;;4.80;2.17;;;16.30;58.10;;;;;;4382090;28;657384;-79
2023/11/09 11:23:22;;;;;;;6.30;2.77;;;17.20;59.00;;;;;;4396637;28;656543;-78
2023/11/09 11:26:10;;;;;;;4.37;1.73;;;17.10;56.40;;;;;;4407800;28;659989;-78
2023/11/09 11:29:00;;;;;;;4.77;1.70;;;16.70;56.40;;;;;;4409216;28;657030;-76
2023/11/09 11:31:47;;;;;;;5.17;1.97;;;17.30;52.80;;;;;;4419262;28;656692;-79
2023/11/09 11:34:48;;;;;;;9.80;1.97;;;16.80;62.50;;;;;;4405878;28;658119;-79
2023/11/09 11:37:35;;;;;;;3.57;1.40;;;16.30;55.30;;;;;;4399644;28;658170;-79
2023/11/09 11:40:26;;;;;;;2.70;1.67;;;16.90;55.80;;;;;;4416987;28;656874;-77
2023/11/09 11:43:14;;;;;;;3.07;1.70;;;16.10;54.50;;;;;;4402773;28;656769;-79
2023/11/09 11:46:03;;;;;;;4.40;1.30;;;15.80;55.70;;;;;;4412982;28;657008;-77
2023/11/09 11:48:52;;;;;;;1.60;0.80;;;15.40;57.60;;;;;;4398026;28;657807;-78
2023/11/09 11:51:39;;;;;;;4.53;1.10;;;14.30;58.90;;;;;;4401001;28;657780;-79
2023/11/09 11:54:29;;;;;;;1.00;0.90;;;13.40;64.50;;;;;;4420433;28;657285;-79
2023/11/09 11:57:18;;;;;;;1.17;0.67;;;13.40;75.50;;;;;;4407220;28;656781;-79
2023/11/09 12:00:08;;;;;;;4.03;1.30;;;13.10;66.50;;;;;;4398364;28;657084;-79
2023/11/09 12:02:56;;;;;;;4.93;1.17;;;12.90;99.90;;;;;;4401677;28;657482;-78
2023/11/09 12:05:43;;;;;;;3.90;1.20;;;12.80;99.90;;;;;;4407693;28;657443;-78
2023/11/09 12:08:31;;;;;;;1.90;0.85;;;12.80;83.30;;;;;;4412762;28;657810;-79
2023/11/09 12:11:18;;;;;;;2.10;1.00;;;12.70;93.70;;;;;;4413635;28;657288;-77
2023/11/09 12:14:08;;;;;;;6.00;1.00;;;12.80;99.30;;;;;;4422560;28;657534;-78
2023/11/09 12:16:55;;;;;;;5.77;1.23;;;12.90;87.40;;;;;;4398025;28;657453;-78
2023/11/09 12:19:43;;;;;;;1.13;0.80;;;12.90;76.80;;;;;;4406333;28;656411;-75
2023/11/09 12:22:33;;;;;;;3.10;1.30;;;12.70;73.10;;;;;;4422918;28;657371;-78
2023/11/09 12:25:22;;;;;;;3.23;1.60;;;12.70;99.90;;;;;;4405072;28;656468;-78
2023/11/09 12:28:09;;;;;;;2.07;1.17;;;12.50;94.40;;;;;;4402540;28;657838;-79
2023/11/09 12:30:58;;;;;;;0.70;0.63;;;12.60;99.90;;;;;;4412717;28;658024;-75
2023/11/09 12:34:00;;;;;;;1.37;0.63;;;12.80;76.70;;;;;;4401922;28;657443;-79
2023/11/09 12:36:51;;;;;;;3.73;1.23;;;12.90;78.80;;;;;;4387044;28;657315;-77
2023/11/09 12:39:38;;;;;;;2.03;1.07;;;13.20;88.50;;;;;;4398241;28;657401;-79
2023/11/09 12:42:25;;;;;;;3.33;0.97;;;13.70;65.90;;;;;;4432197;28;656924;-78
2023/11/09 12:45:13;;;;;;;3.73;1.20;;;14.30;60.30;;;;;;4409503;28;656533;-75
2023/11/09 12:48:02;;;;;;;4.43;1.40;;;14.70;61.10;;;;;;4424300;28;657432;-79
2023/11/09 12:50:48;;;;;;;4.27;1.20;;;15.30;58.10;;;;;;4401359;28;656999;-80
2023/11/09 12:53:35;;;;;;;2.53;1.00;;;16.50;59.00;;;;;;4427315;28;656710;-79
2023/11/09 12:56:23;;;;;;;1.20;0.70;;;16.00;53.80;;;;;;4404186;28;657526;-76
2023/11/09 12:59:14;;;;;;;1.47;1.10;;;16.00;55.30;;;;;;4429864;28;656529;-76
2023/11/09 13:02:04;;;;;;;2.20;1.13;;;15.60;54.70;;;;;;4399213;28;656934;-78
2023/11/09 13:04:53;;;;;;;1.73;1.00;;;15.30;55.80;;;;;;4397173;28;657184;-77
2023/11/09 13:07:44;;;;;;;2.40;0.60;;;14.90;56.00;;;;;;4401291;28;656925;-77
2023/11/09 13:10:31;;;;;;;2.47;1.40;;;14.50;56.90;;;;;;4404632;28;656175;-77
2023/11/09 13:13:24;;;;;;;3.37;1.33;;;14.40;61.20;;;;;;4406032;28;657108;-77
2023/11/09 13:16:14;;;;;;;2.90;1.40;;;14.50;63.40;;;;;;4405675;28;656368;-79
2023/11/09 13:19:02;;;;;;;2.43;1.40;;;15.20;62.50;;;;;;4398389;28;657162;-79
2023/11/09 13:21:50;;;;;;;3.03;1.33;;;16.00;55.50;;;;;;4408177;28;656676;-78
2023/11/09 13:24:37;;;;;;;2.47;1.40;;;16.40;56.20;;;;;;4401432;28;656869;-79
2023/11/09 13:27:25;;;;;;;2.50;1.50;;;16.70;54.40;;;;;;4425981;28;657754;-80
2023/11/09 13:30:17;;;;;;;1.87;1.30;;;16.70;56.10;;;;;;4416828;28;656348;-76
2023/11/09 13:33:14;;;;;;;3.50;1.20;;;15.60;53.50;;;;;;4405117;28;657416;-78
2023/11/09 13:36:04;;;;;;;2.93;1.30;;;16.20;52.80;;;;;;4400639;28;657113;-79
2023/11/09 13:39:32;;;;;;;1.70;1.00;;;16.60;54.00;;;;;;4410097;28;656595;-78
2023/11/09 13:42:06;;;;;;;3.40;1.17;;;16.40;53.70;;;;;;4399248;28;657022;-78
2023/11/09 13:44:54;;;;;;;2.63;1.27;;;16.90;52.30;;;;;;4378728;28;657241;-78
2023/11/09 13:47:43;;;;;;;2.53;1.30;;;16.90;52.10;;;;;;4422831;28;656537;-78
2023/11/09 13:50:31;;;;;;;3.90;1.37;;;16.10;54.20;;;;;;4403133;28;657052;-79
2023/11/09 13:53:41;;;;;;;2.75;1.20;;;15.70;54.80;;;;;;4406204;28;656726;-79
2023/11/09 13:59:43;;;;;;;2.27;1.10;;;14.80;58.00;;;;;;4401256;28;656867;-79
2023/11/09 14:02:33;;;;;;;2.80;1.50;;;14.70;62.40;;;;;;4427698;28;658136;-79
2023/11/09 14:05:22;;;;;;;3.17;1.00;;;14.60;68.10;;;;;;4408373;28;657733;-79
2023/11/09 14:08:18;;;;;;;5.93;1.53;;;14.40;76.00;;;;;;4403311;28;656904;-79
2023/11/09 14:11:10;;;;;;;2.03;1.30;;;14.00;89.90;;;;;;4386361;28;656787;-79
2023/11/09 14:14:04;;;;;;;1.97;1.50;;;13.80;75.60;;;;;;4368498;28;656640;-76
2023/11/09 14:16:54;;;;;;;5.50;1.37;;;13.80;92.70;;;;;;4389112;28;657150;-79
2023/11/09 14:19:41;;;;;;;4.63;1.30;;;13.60;95.40;;;;;;4388567;28;657029;-79
2023/11/09 14:22:29;;;;;;;5.57;1.37;;;13.40;99.90;;;;;;4391253;28;656707;-79
2023/11/09 14:25:21;;;;;;;3.05;1.73;;;13.20;99.90;;;;;;4405941;28;656074;-78
2023/11/09 14:28:10;;;;;;;6.97;1.73;;;13.00;99.90;;;;;;4363829;28;657683;-78
2023/11/09 14:30:58;;;;;;;4.67;1.90;;;12.60;99.90;;;;;;4416383;28;656209;-79
2023/11/09 14:33:47;;;;;;;4.07;1.97;;;12.20;99.90;;;;;;4386961;28;657384;-79
2023/11/09 14:36:41;;;;;;;3.73;1.23;;;11.60;99.90;;;;;;4387481;28;658115;-79